Flight Track Log - Related Links

Times and Time Zones

All times are in EDT time to prevent confusion due to time zone crossing. See the GPD20 flight status page for this flight to view local times or setup timezone preferences in your user account.

Time Position Orientation Groundspeed Altitude Reporting Facility
EDT Latitude Longitude Course Direction KTS MPH feet Rate Location/Type
Sun 10:42:35 AM 40.6167 -73.8000 201° Southwest 109 125 1,400  Level New York TRACON
Sun 10:43:29 AM 40.5833 -73.8167 201° Southwest 119 137 2,100 750 Climbing New York TRACON
Sun 10:44:35 AM 40.5833 -73.7667 90° East 136 157 2,900 714 Climbing New York TRACON
Sun 10:45:35 AM 40.6000 -73.7333 57° Northeast 139 160 3,600 737 Climbing New York TRACON
Sun 10:46:29 AM 40.6167 -73.6833 66° East 145 167 4,300 684 Climbing New York TRACON
Sun 10:47:29 AM 40.6333 -73.6333 66° East 151 174 4,900 579 Climbing New York TRACON
Sun 10:48:23 AM 40.6500 -73.5833 66° East 161 185 5,400 474 Climbing New York TRACON
Sun 10:49:23 AM 40.6833 -73.5333 49° Northeast 167 192 5,800 400 Climbing New York TRACON
Sun 10:50:23 AM 40.7000 -73.5000 57° Northeast 168 193 6,200 450 Climbing New York TRACON
Sun 10:51:23 AM 40.7333 -73.4500 49° Northeast 169 194 6,700 417 Climbing New York TRACON
Sun 10:52:18 AM 40.7667 -73.4167 37° Northeast 169 194 7,000 211 Climbing New York TRACON
Sun 10:53:17 AM 40.8167 -73.3833 27° Northeast 180 207 7,100 50 Climbing New York TRACON
Sun 10:54:17 AM 40.8500 -73.3500 37° Northeast 178 205 7,100 -50 Level New York TRACON
Sun 10:55:18 AM 40.9000 -73.3167 27° Northeast 177 204 7,000  Descending New York TRACON
Sun 10:56:18 AM 40.9333 -73.2833 37° Northeast 177 204 7,100  Climbing New York TRACON
Sun 10:57:17 AM 40.9833 -73.2500 27° Northeast 179 206 7,000 -50 Descending New York TRACON
Sun 10:58:18 AM 41.0333 -73.2333 14° North 176 203 7,000  Level New York TRACON
Sun 10:59:17 AM 41.0667 -73.2000 37° Northeast 175 201 7,000  Level New York TRACON
Sun 11:00:18 AM 41.1167 -73.1667 27° Northeast 177 204 7,000  Level New York TRACON
Sun 11:01:17 AM 41.1500 -73.1333 37° Northeast 176 203 7,000 50 Level New York TRACON
Sun 11:02:18 AM 41.1833 -73.0833 48° Northeast 177 204 7,100  Climbing New York TRACON
Sun 11:03:18 AM 41.2000 -73.0167 72° East 177 204 7,000 -50 Descending New York TRACON
Sun 11:04:18 AM 41.2167 -72.9667 66° East 177 204 7,000  Level New York TRACON
Sun 11:05:18 AM 41.2333 -72.9000 72° East 179 206 7,000  Level New York TRACON
Sun 11:06:18 AM 41.2667 -72.8500 48° Northeast 180 207 7,000  Level New York TRACON
Sun 11:07:18 AM 41.2833 -72.7833 72° East 184 212 7,000  Level New York TRACON
Sun 11:08:12 AM 41.3000 -72.7333 66° East 184 212 7,000  Level New York TRACON
Sun 11:09:12 AM 41.3167 -72.6667 72° East 181 208 7,000  Level New York TRACON
Sun 11:10:12 AM 41.3333 -72.6167 66° East 177 204 7,000  Level New York TRACON
Sun 11:11:19 AM 41.3269 -72.5422 96° East 173 199 7,000  Level Boston Center
Sun 11:12:09 AM 41.3292 -72.4872 87° East 180 207 7,000  Level Boston Center
Sun 11:13:09 AM 41.3292 -72.4208 90° East 183 211 7,000  Level Boston Center
Sun 11:14:10 AM 41.3292 -72.3544 90° East 182 209 7,000  Level Boston Center
Sun 11:15:10 AM 41.3167 -72.2881 104° East 168 193 7,000  Level Boston Center
Sun 11:16:06 AM 41.3103 -72.2328 99° East 175 201 7,000  Level Boston Center
Sun 11:17:06 AM 41.2997 -72.1667 102° East 178 205 7,000  Level Boston Center
Sun 11:18:07 AM 41.2933 -72.1031 98° East 175 201 7,000  Level Boston Center
Sun 11:19:13 AM 41.2847 -72.0339 99° East 171 197 7,000  Level Boston Center
Sun 11:20:14 AM 41.2739 -71.9622 101° East 179 206 7,000  Level Boston Center
Sun 11:21:21 AM 41.2633 -71.8906 101° East 178 205 7,000  Level Boston Center
Sun 11:22:21 AM 41.2567 -71.8272 98° East 175 201 7,000  Level Boston Center
Sun 11:23:22 AM 41.2458 -71.7636 103° East 167 192 7,000  Level Boston Center
Sun 11:24:22 AM 41.2372 -71.6975 100° East 177 204 7,000  Level Boston Center
Sun 11:25:22 AM 41.2283 -71.6342 101° East 178 205 7,000  Level Boston Center
Sun 11:26:29 AM 41.2175 -71.5625 101° East 178 205 7,000  Level Boston Center
Sun 11:27:29 AM 41.2086 -71.4992 101° East 175 201 7,000  Level Boston Center
Sun 11:28:30 AM 41.1997 -71.4331 100° East 180 207 7,000  Level Boston Center
Sun 11:30:00 AM 41.1999 -71.3466 90° East  Level FlightAware Approximate
Sun 11:37:00 AM 41.1560 -70.9565 121° Southeast  Level FlightAware Approximate
Sun 11:38:00 AM 41.1336 -70.9072 121° Southeast  Level FlightAware Approximate
Sun 11:39:00 AM 41.1112 -70.8579 121° Southeast  Level FlightAware Approximate
Sun 11:40:00 AM 41.1047 -70.8052 77° East  Level FlightAware Approximate
Sun 11:41:00 AM 41.1141 -70.7490 77° East  Level FlightAware Approximate
Sun 11:42:00 AM 41.1235 -70.6928 78° East  Level FlightAware Approximate
Sun 11:43:00 AM 41.1328 -70.6365 78° East  Level FlightAware Approximate
Sun 11:44:00 AM 41.1499 -70.5837 66° East  Level FlightAware Approximate
Sun 11:45:00 AM 41.1667 -70.5308 90° East  Level FlightAware Approximate
Sun 11:46:00 AM 41.1681 -70.4733 79° East  Level FlightAware Approximate
Sun 11:47:00 AM 41.1762 -70.4167 79° East  Level FlightAware Approximate
Sun 11:48:00 AM 41.1844 -70.3601 77° East  Level FlightAware Approximate
Sun 11:49:00 AM 41.1938 -70.3039 77° East  Level FlightAware Approximate
Sun 11:50:00 AM 41.2052 -70.2484 69° East  Level FlightAware Approximate
Sun 11:51:00 AM 41.2206 -70.1945 69° East  Level FlightAware Approximate
Sun 11:52:00 AM 41.2350 -70.1402 77° East  Level FlightAware Approximate
Sun 11:53:00 AM 41.2444 -70.0839 77° East  Level FlightAware Approximate
Sun 11:54:00 AM 41.2500 -70.0500 77° East  Level FlightAware Approximate
Sun 11:55:00 AM 41.2531 -70.0603 77° East  Level Estimated
Sun 11:56:00 AM 41.2531 -70.0603 77° East  Level Estimated
Sun 11:57:00 AM 41.2531 -70.0603 77° East  Level Estimated
Sun 11:58:00 AM 41.2531 -70.0603 77° East  Level Estimated
Sun 11:59:00 AM 41.2531 -70.0603 77° East  Level Estimated
Sun 12:00:00 PM 41.2531 -70.0603 77° East  Level Estimated
Sun 12:01:00 PM 41.2531 -70.0603 77° East  Level Estimated
Sun 12:02:00 PM 41.2531 -70.0603 77° East  Level Estimated
Sun 12:03:00 PM 41.2531 -70.0603 77° East  Level Estimated

Login

Don't have an account? Register now (free) for customized features, flight alerts, and more!